createdAt,value
2022-08-07T22:03:31.206Z,12.82
2022-08-07T22:04:20.373Z,7.28
2022-08-07T22:05:43.930Z,7.64
2022-08-07T22:06:29.974Z,8.73
2022-08-07T22:07:04.170Z,10.05
2022-08-07T22:07:59.568Z,11.50
2022-08-07T22:08:53.445Z,12.94
2022-08-07T22:09:54.070Z,14.42
2022-08-07T22:10:44.845Z,15.90
2022-08-07T22:11:52.958Z,17.53
2022-08-07T22:12:35.214Z,19.03
2022-08-07T22:13:50.963Z,20.51
2022-08-07T22:14:36.063Z,22.12
2022-08-07T22:16:42.256Z,25.22
2022-08-07T22:16:44.425Z,23.75
2022-08-07T22:17:10.818Z,26.48
2022-08-07T22:19:11.732Z,27.73
2022-08-07T22:20:06.084Z,28.66
2022-08-07T22:21:01.559Z,30.82
2022-08-07T22:22:02.019Z,32.58
2022-08-07T22:22:52.441Z,34.71
2022-08-07T22:23:46.713Z,36.44
2022-08-07T22:24:41.829Z,38.03
2022-08-07T22:25:36.916Z,39.47
2022-08-07T22:26:32.008Z,40.90
2022-08-07T22:27:34.214Z,42.14
2022-08-07T22:28:32.479Z,43.01
2022-08-07T22:29:18.674Z,44.24
2022-08-07T22:30:12.823Z,45.29
2022-08-07T22:31:08.042Z,46.25
2022-08-07T22:32:05.670Z,47.08
2022-08-07T22:32:58.407Z,47.62
2022-08-07T22:33:57.384Z,49.24
2022-08-07T22:34:52.979Z,50.22
2022-08-07T22:35:44.896Z,50.62
2022-08-07T22:36:39.022Z,51.05
2022-08-07T22:38:02.687Z,51.59
2022-08-07T22:38:30.402Z,52.40
2022-08-07T22:39:24.546Z,52.97
2022-08-07T22:40:19.777Z,53.68
2022-08-07T22:41:14.882Z,54.06
2022-08-07T22:42:18.764Z,54.74
2022-08-07T22:43:06.264Z,55.17
2022-08-07T22:44:00.398Z,55.21
2022-08-07T22:44:58.725Z,55.61
2022-08-07T22:46:21.306Z,56.86
2022-08-07T22:47:04.188Z,57.29
2022-08-07T22:47:42.319Z,58.13
2022-08-07T22:48:55.264Z,58.46
2022-08-07T22:49:33.839Z,59.20
2022-08-07T22:50:33.035Z,59.71
2022-08-07T22:51:22.981Z,60.54
2022-08-07T22:52:34.829Z,61.38
2022-08-07T22:53:15.261Z,61.43
2022-08-07T22:54:09.264Z,62.44
2022-08-07T22:55:17.358Z,62.72
2022-08-07T22:55:58.741Z,64.12
2022-08-07T22:56:52.919Z,64.82
2022-08-07T22:57:48.133Z,65.12
2022-08-07T22:58:43.407Z,65.99
2022-08-07T22:59:38.554Z,66.41
2022-08-07T23:00:33.640Z,66.95
2022-08-07T23:01:30.572Z,67.65
2022-08-07T23:02:24.855Z,68.54
2022-08-07T23:03:19.011Z,69.11
2022-08-07T23:04:14.055Z,69.57
2022-08-07T23:06:07.731Z,69.46
2022-08-07T23:06:08.350Z,70.57
2022-08-07T23:07:00.638Z,71.11
2022-08-07T23:07:54.789Z,72.66
2022-08-07T23:08:55.972Z,72.72
2022-08-07T23:10:00.640Z,72.47
2022-08-07T23:10:42.328Z,73.17
2022-08-07T23:11:44.318Z,73.75
2022-08-07T23:12:34.681Z,74.94
2022-08-07T23:13:29.084Z,75.42
2022-08-07T23:14:22.704Z,76.25
2022-08-07T23:16:04.394Z,76.32
2022-08-07T23:16:46.432Z,76.95
2022-08-07T23:17:08.452Z,77.31
2022-08-07T23:18:02.696Z,77.45
2022-08-07T23:18:56.850Z,77.96
2022-08-07T23:19:57.982Z,79.29
2022-08-07T23:20:52.666Z,80.05
2022-08-07T23:21:43.241Z,81.14
2022-08-07T23:22:37.369Z,81.78
2022-08-07T23:24:05.485Z,82.26
2022-08-07T23:24:28.663Z,82.91
2022-08-07T23:25:22.777Z,81.86
2022-08-07T23:26:18.921Z,81.70
2022-08-07T23:27:13.119Z,81.94
2022-08-07T23:28:21.130Z,82.02
2022-08-07T23:29:04.377Z,83.16
2022-08-07T23:30:37.278Z,83.66
2022-08-07T23:31:06.280Z,83.91
2022-08-07T23:34:20.818Z,85.20
2022-08-07T23:34:21.201Z,85.29
2022-08-07T23:34:21.803Z,84.42
2022-08-07T23:34:39.579Z,85.37
2022-08-07T23:35:29.560Z,85.99
2022-08-07T23:36:29.796Z,86.17
2022-08-07T23:37:22.682Z,86.08
2022-08-07T23:38:19.384Z,86.61
2022-08-07T23:39:11.239Z,86.71
2022-08-07T23:40:05.733Z,86.53
2022-08-07T23:41:00.440Z,86.43
2022-08-07T23:42:04.584Z,86.61
2022-08-07T23:42:53.237Z,86.43
2022-08-07T23:43:45.896Z,87.25
2022-08-07T23:44:40.944Z,88.17
2022-08-07T23:46:03.356Z,88.26
2022-08-07T23:46:33.771Z,88.17
2022-08-07T23:47:26.376Z,88.83
2022-08-07T23:48:21.749Z,88.36
2022-08-07T23:49:16.760Z,87.71
2022-08-07T23:50:16.404Z,87.61
2022-08-07T23:53:01.295Z,87.07
2022-08-07T23:53:01.820Z,87.43
2022-08-07T23:53:17.606Z,87.25
2022-08-07T23:53:53.647Z,87.25
2022-08-07T23:54:52.875Z,87.61
2022-08-07T23:55:51.714Z,88.17
2022-08-07T23:56:38.960Z,88.08
2022-08-07T23:57:34.856Z,89.69
2022-08-07T23:58:28.253Z,89.98
